Latest Weather Observations for Lucas Heights

IDN60801

Issued at 8:03 am EST Saturday 29 August 2015 (issued every 30 minutes, with the page automatically refreshed every 10 minutes)

About weather observations | Map of weather stations | Latest weather observations for NSW | Other Formats
Station Details ID: 066023 Name: LUCAS HEIGHTS AWS Lat: -34.05 Lon: 150.98 Height: 140.0 m
Data from the previous 72 hours. | See also: Recent months for locations in New South Wales
Date/Time
EST
Temp
°C
App
Temp
°C
Dew
Point
Rel
Hum
%
Delta-T
°C
Wind Press
QNH
hPa
Press
MSL
hPa
Rain
since 9 am
mm
Dir
 
Spd
km/h
Gust
km/h
Spd
kts
Gust
kts
29/07:45am 8.8 6.2 6.3 84 1.2 WSW 9 13 5 7 1022.6 - 0.0
29/07:30am 6.9 3.6 4.3 83 1.1 WSW 11 13 6 7 1022.6 - 0.0
29/07:15am 6.4 3.3 3.6 82 1.2 WSW 9 11 5 6 1022.6 - 0.0
29/07:00am 6.1 2.5 3.2 82 1.2 WSW 11 13 6 7 1022.4 - 0.0
29/06:45am 6.0 2.0 3.0 81 1.3 WSW 13 13 7 7 1022.3 - 0.0
29/06:30am 6.4 3.2 3.2 80 1.3 W 9 13 5 7 1022.3 - 0.0
29/06:15am 6.4 3.8 3.1 79 1.4 W 6 9 3 5 1022.2 - 0.0
29/06:00am 6.5 3.9 3.1 79 1.4 W 6 7 3 4 1022.0 - 0.0
29/05:45am 7.0 4.4 3.4 78 1.5 W 6 9 3 5 1021.9 - 0.0
29/05:30am 7.8 4.4 4.1 77 1.6 WSW 11 13 6 7 1021.8 - 0.0
29/05:15am 8.1 4.4 4.4 77 1.6 WSW 13 13 7 7 1021.8 - 0.0
29/05:00am 7.9 4.2 4.2 77 1.6 WSW 13 15 7 8 1021.8 - 0.0
29/04:45am 8.1 4.4 4.3 77 1.7 SW 13 17 7 9 1021.8 - 0.0
29/04:30am 8.2 4.1 4.4 77 1.7 SW 15 17 8 9 1021.8 - 0.0
29/04:15am 8.4 4.3 4.5 76 1.7 SW 15 17 8 9 1021.8 - 0.0
29/04:00am 8.3 4.2 4.3 76 1.8 SW 15 17 8 9 1021.8 - 0.0
29/03:45am 8.8 5.1 4.7 75 1.8 SW 13 15 7 8 1021.8 - 0.0
29/03:30am 8.9 4.9 4.7 75 1.9 WSW 15 17 8 9 1021.9 - 0.0
29/03:15am 9.2 5.2 4.8 74 2.0 WSW 15 17 8 9 1022.0 - 0.0
29/03:00am 9.4 5.1 5.2 75 1.9 WSW 17 17 9 9 1022.1 - 0.0
29/02:45am 9.3 5.0 5.2 75 1.9 WSW 17 19 9 10 1022.2 - 0.0
29/02:30am 8.9 4.9 5.0 76 1.8 W 15 17 8 9 1022.4 - 0.0
29/02:15am 8.7 5.0 4.3 74 1.9 WSW 13 17 7 9 1022.5 - 0.0
29/02:00am 10.0 6.1 5.2 72 2.2 WSW 15 17 8 9 1022.6 - 0.0
29/01:45am 10.4 7.1 6.2 75 2.0 W 13 17 7 9 1022.8 - 0.0
29/01:30am 9.4 5.6 5.8 78 1.7 WSW 15 17 8 9 1022.8 - 0.0
29/01:15am 8.2 4.5 4.5 77 1.6 WSW 13 17 7 9 1022.8 - 0.0
29/01:00am 8.7 5.1 4.8 76 1.7 WSW 13 15 7 8 1022.9 - 0.0
29/12:45am 9.1 5.5 5.0 75 1.8 WSW 13 17 7 9 1022.9 - 0.0
29/12:30am 9.6 6.4 5.1 73 2.0 WSW 11 13 6 7 1022.9 - 0.0
29/12:15am 10.1 6.7 5.7 74 2.0 WSW 13 15 7 8 1022.9 - 0.0
29/12:00am 10.0 6.6 5.7 74 2.0 WSW 13 15 7 8 1022.9 - 0.0
 
Date/Time
EST
Temp
°C
App
Temp
°C
Dew
Point
Rel
Hum
%
Delta-T
°C
Wind Press
QNH
hPa
Press
MSL
hPa
Rain
since 9 am
mm
Dir
 
Spd
km/h
Gust
km/h
Spd
kts
Gust
kts
28/11:45pm 10.0 6.6 5.8 75 1.9 SW 13 15 7 8 1023.0 - 0.0
28/11:30pm 10.3 7.0 6.3 76 1.9 SW 13 15 7 8 1023.0 - 0.0
28/11:15pm 10.5 7.3 7.0 79 1.7 SSW 13 17 7 9 1023.1 - 0.0
28/11:00pm 9.8 6.2 6.7 81 1.5 SSW 15 17 8 9 1023.1 - 0.0
28/10:45pm 9.4 5.7 6.4 81 1.4 SSW 15 17 8 9 1023.1 - 0.0
28/10:30pm 9.6 5.9 6.5 81 1.5 SW 15 17 8 9 1023.1 - 0.0
28/10:15pm 9.8 6.2 6.7 81 1.5 SSW 15 19 8 10 1023.1 - 0.0
28/10:00pm 9.7 6.0 6.4 80 1.5 SSW 15 19 8 10 1023.0 - 0.0
28/09:45pm 9.9 6.6 6.3 78 1.7 SSW 13 17 7 9 1023.1 - 0.0
28/09:30pm 10.6 7.8 6.9 78 1.8 S 11 13 6 7 1023.0 - 0.0
28/09:15pm 11.0 8.3 7.3 78 1.8 S 11 15 6 8 1022.9 - 0.0
28/09:00pm 11.1 9.1 7.2 77 1.9 S 7 11 4 6 1022.7 - 0.0
28/08:45pm 11.7 9.0 7.5 75 2.0 S 11 15 6 8 1022.6 - 0.0
28/08:30pm 12.3 9.7 7.9 74 2.2 S 11 15 6 8 1022.5 - 0.0
28/08:15pm 12.7 10.6 8.1 73 2.3 S 9 15 5 8 1022.3 - 0.0
28/08:00pm 12.9 10.0 8.2 73 2.3 S 13 22 7 12 1022.1 - 0.0
28/07:45pm 12.9 9.9 7.9 71 2.5 S 13 17 7 9 1021.9 - 0.0
28/07:30pm 13.4 10.9 8.1 70 2.6 S 11 17 6 9 1021.8 - 0.0
28/07:15pm 13.7 11.2 8.1 69 2.8 S 11 19 6 10 1021.7 - 0.0
28/07:00pm 13.8 10.9 8.2 69 2.8 S 13 17 7 9 1021.5 - 0.0
28/06:45pm 13.9 11.0 8.2 68 2.9 S 13 17 7 9 1021.4 - 0.0
28/06:30pm 14.1 11.2 8.2 67 3.0 SSE 13 17 7 9 1021.2 - 0.0
28/06:15pm 14.3 11.1 8.3 67 3.0 SSE 15 20 8 11 1021.0 - 0.0
28/06:00pm 14.3 11.5 8.5 68 2.9 SSE 13 20 7 11 1020.9 - 0.0
28/05:45pm 14.5 11.4 8.7 68 3.0 SSE 15 22 8 12 1020.7 - 0.0
28/05:30pm 14.6 11.5 8.8 68 3.0 SSE 15 19 8 10 1020.5 - 0.0
28/05:15pm 14.6 12.2 8.7 67 3.0 SSE 11 19 6 10 1020.4 - 0.0
28/05:00pm 14.8 12.4 8.6 66 3.2 SSE 11 19 6 10 1020.2 - 0.0
28/04:45pm 15.0 12.6 8.6 65 3.3 SSE 11 17 6 9 1020.0 - 0.0
28/04:30pm 15.2 12.4 8.4 64 3.5 SSE 13 20 7 11 1019.9 - 0.0
28/04:15pm 15.5 12.2 8.1 61 3.7 SSE 15 22 8 12 1019.8 - 0.0
28/04:00pm 16.0 13.0 7.5 57 4.3 SSE 13 20 7 11 1019.7 - 0.0
28/03:45pm 17.1 14.2 6.4 49 5.3 S 11 19 6 10 1019.5 - 0.0
28/03:30pm 17.5 14.9 6.1 47 5.6 SSW 9 17 5 9 1019.3 - 0.0
28/03:15pm 17.6 13.4 5.6 45 5.9 SW 17 24 9 13 1019.0 - 0.0
28/03:00pm 18.1 14.0 6.2 45 5.9 SSW 17 28 9 15 1018.9 - 0.0
28/02:45pm 17.4 14.0 6.0 47 5.6 SSW 13 24 7 13 1018.9 - 0.0
28/02:30pm 17.5 13.3 5.9 46 5.7 SSW 17 24 9 13 1018.8 - 0.0
28/02:15pm 17.9 14.2 6.2 46 5.8 SW 15 22 8 12 1018.8 - 0.0
28/02:00pm 17.6 13.0 5.7 45 5.8 SW 19 24 10 13 1018.7 - 0.0
28/01:45pm 17.9 13.4 6.3 46 5.8 SW 19 35 10 19 1018.8 - 0.0
28/01:30pm 17.9 13.1 5.6 44 6.0 SSW 20 32 11 17 1018.8 - 0.0
28/01:15pm 17.6 11.6 5.4 44 5.9 SW 26 39 14 21 1018.9 - 0.0
28/01:00pm 18.0 12.9 5.9 45 6.0 SSW 22 33 12 18 1018.9 - 0.0
28/12:45pm 17.4 12.9 6.3 48 5.5 SSW 19 32 10 17 1019.1 - 0.0
28/12:30pm 17.4 13.3 6.2 47 5.5 SSW 17 26 9 14 1019.4 - 0.0
28/12:15pm 16.9 12.3 5.5 47 5.5 SW 19 26 10 14 1019.7 - 0.0
28/12:00pm 16.9 12.1 5.7 47 5.5 SW 20 32 11 17 1019.8 - 0.0
28/11:45am 16.2 11.7 6.0 51 5.0 WSW 19 30 10 16 1019.9 - 0.0
28/11:30am 16.2 11.5 5.9 50 5.0 WSW 20 30 11 16 1019.9 - 0.0
28/11:15am 15.8 11.3 6.1 52 4.7 WSW 19 30 10 16 1019.9 - 0.0
28/11:00am 15.0 10.5 5.9 54 4.4 WSW 19 28 10 15 1020.0 - 0.0
28/10:45am 14.5 8.9 5.6 55 4.2 WSW 24 37 13 20 1019.9 - 0.0
28/10:30am 14.2 8.6 5.4 55 4.2 WSW 24 33 13 18 1019.9 - 0.0
28/10:15am 13.9 8.3 5.2 55 4.1 WSW 24 37 13 20 1019.8 - 0.0
28/10:00am 13.9 7.1 5.0 55 4.2 WSW 30 41 16 22 1020.0 - 0.0
28/09:45am 13.9 6.1 4.8 54 4.3 SW 35 57 19 31 1020.1 - 0.0
28/09:30am 14.1 6.6 4.7 53 4.4 SW 33 52 18 28 1019.9 - 0.0
28/09:15am 14.1 7.3 5.3 55 4.2 SW 30 46 16 25 1019.7 - 0.0
28/09:00am 13.6 8.0 5.3 57 3.9 WSW 24 33 13 18 1019.7 - 0.2
28/08:45am 13.0 7.8 5.3 59 3.6 WSW 22 33 12 18 1019.5 - 0.2
28/08:30am 12.6 9.1 5.6 62 3.3 WSW 13 30 7 16 1019.3 - 0.2
28/08:15am 12.0 8.1 5.2 63 3.2 WSW 15 22 8 12 1019.1 - 0.2
28/08:00am 11.5 6.8 5.0 64 3.0 WSW 19 28 10 15 1018.8 - 0.2
28/07:45am 11.0 5.7 4.9 66 2.8 WSW 22 30 12 16 1018.6 - 0.2
28/07:30am 10.7 5.0 4.9 67 2.6 W 24 33 13 18 1018.3 - 0.2
28/07:15am 10.4 5.5 4.9 69 2.5 W 20 32 11 17 1018.0 - 0.2
28/07:00am 9.9 4.5 4.7 70 2.3 W 22 30 12 16 1017.8 - 0.2
28/06:45am 9.5 3.7 4.4 70 2.3 W 24 32 13 17 1017.8 - 0.2
28/06:30am 9.2 3.0 4.3 71 2.2 WSW 26 30 14 16 1017.8 - 0.2
28/06:15am 9.1 3.3 4.3 72 2.1 W 24 28 13 15 1017.7 - 0.2
28/06:00am 9.8 4.0 4.6 70 2.3 W 24 28 13 15 1017.5 - 0.2
28/05:45am 9.9 4.2 4.7 70 2.3 W 24 28 13 15 1017.3 - 0.2
28/05:30am 9.9 3.8 4.8 70 2.3 W 26 32 14 17 1017.2 - 0.2
28/05:15am 9.7 3.2 4.5 70 2.3 W 28 33 15 18 1017.0 - 0.2
28/05:00am 9.6 2.7 4.5 70 2.3 W 30 33 16 18 1016.9 - 0.2
28/04:45am 9.2 2.6 4.3 71 2.2 W 28 32 15 17 1016.8 - 0.2
28/04:30am 9.0 2.7 4.0 71 2.2 W 26 32 14 17 1016.7 - 0.2
28/04:15am 9.1 3.2 3.8 69 2.3 W 24 28 13 15 1016.6 - 0.2
28/04:00am 9.7 3.9 4.3 69 2.4 W 24 28 13 15 1016.6 - 0.2
28/03:45am 9.3 2.7 4.4 71 2.2 W 28 32 15 17 1016.5 - 0.2
28/03:30am 9.0 2.8 4.1 71 2.2 W 26 30 14 16 1016.6 - 0.2
28/03:15am 9.2 4.2 4.4 72 2.1 WNW 20 26 11 14 1016.5 - 0.2
28/03:00am 8.8 3.0 4.5 74 1.9 WNW 24 28 13 15 1016.6 - 0.2
28/02:45am 8.3 3.4 4.1 75 1.8 WNW 19 22 10 12 1016.8 - 0.2
28/02:30am 8.1 4.3 3.7 74 1.9 WNW 13 17 7 9 1017.1 - 0.2
28/02:15am 8.6 5.9 3.7 71 2.1 NW 7 13 4 7 1017.2 - 0.2
28/02:00am 9.3 6.8 3.8 68 2.4 WNW 6 9 3 5 1017.2 - 0.2
28/01:45am 10.0 7.0 4.2 67 2.6 W 9 19 5 10 1017.4 - 0.2
28/01:30am 10.4 5.6 4.5 67 2.7 W 19 28 10 15 1017.4 - 0.2
28/01:15am 10.4 4.6 4.4 66 2.7 W 24 32 13 17 1017.5 - 0.2
28/01:00am 10.4 4.6 4.4 66 2.7 W 24 32 13 17 1017.5 - 0.2
28/12:45am 10.4 4.6 4.3 66 2.7 W 24 28 13 15 1017.5 - 0.2
28/12:30am 10.7 4.9 4.3 64 2.9 W 24 32 13 17 1017.5 - 0.2
28/12:15am 10.7 4.5 4.1 63 3.0 W 26 35 14 19 1017.4 - 0.2
28/12:00am 11.0 4.8 4.5 64 2.9 W 26 37 14 20 1017.5 - 0.2
 
Date/Time
EST
Temp
°C
App
Temp
°C
Dew
Point
Rel
Hum
%
Delta-T
°C
Wind Press
QNH
hPa
Press
MSL
hPa
Rain
since 9 am
mm
Dir
 
Spd
km/h
Gust
km/h
Spd
kts
Gust
kts
27/11:45pm 11.3 5.6 4.7 64 3.0 W 24 33 13 18 1017.5 - 0.2
27/11:30pm 11.4 5.6 4.6 63 3.1 W 24 33 13 18 1017.6 - 0.2
27/11:15pm 11.6 5.5 4.7 62 3.2 W 26 37 14 20 1017.7 - 0.2
27/11:00pm 11.7 4.8 4.7 62 3.2 W 30 37 16 20 1017.8 - 0.2
27/10:45pm 11.5 4.6 4.8 63 3.1 W 30 50 16 27 1017.7 - 0.2
27/10:30pm 11.4 5.7 4.9 64 3.0 W 24 30 13 16 1017.8 - 0.2
27/10:15pm 11.7 6.5 5.3 65 3.0 W 22 28 12 15 1017.8 - 0.2
27/10:00pm 11.7 6.9 5.5 66 2.9 W 20 24 11 13 1017.8 - 0.2
27/09:45pm 11.7 7.1 5.5 66 2.9 W 19 22 10 12 1017.8 - 0.2
27/09:30pm 12.1 7.5 5.6 64 3.0 W 19 22 10 12 1017.8 - 0.0
27/09:15pm 12.4 7.8 5.5 63 3.2 W 19 22 10 12 1017.9 - 0.0
27/09:00pm 12.5 7.9 5.6 63 3.2 W 19 22 10 12 1017.8 - 0.0
27/08:45pm 12.7 8.5 5.6 62 3.3 W 17 19 9 10 1017.5 - 0.0
27/08:30pm 12.8 8.7 6.0 63 3.2 W 17 19 9 10 1017.6 - 0.0
27/08:15pm 12.7 9.0 6.4 65 3.0 WNW 15 20 8 11 1017.6 - 0.0
27/08:00pm 13.0 9.3 6.5 64 3.1 WNW 15 22 8 12 1017.5 - 0.0
27/07:45pm 13.3 10.8 6.5 63 3.3 WNW 9 19 5 10 1017.4 - 0.0
27/07:30pm 13.7 10.8 6.3 61 3.6 W 11 19 6 10 1017.1 - 0.0
27/07:15pm 13.9 9.8 6.3 60 3.7 W 17 22 9 12 1017.0 - 0.0
27/07:00pm 14.1 10.4 6.5 60 3.7 W 15 22 8 12 1017.0 - 0.0
27/06:45pm 14.2 10.1 6.4 59 3.8 W 17 26 9 14 1017.0 - 0.0
27/06:30pm 14.3 9.7 6.3 58 3.9 W 20 30 11 16 1017.1 - 0.0
27/06:15pm 14.8 9.4 6.2 56 4.2 W 24 33 13 18 1016.9 - 0.0
27/06:00pm 15.1 9.0 6.4 56 4.2 WSW 28 39 15 21 1016.6 - 0.0
27/05:45pm 15.7 10.5 7.3 57 4.2 WSW 24 39 13 21 1016.3 - 0.0
27/05:30pm 16.6 13.3 8.0 57 4.4 W 15 43 8 23 1015.8 - 0.0
27/05:15pm 16.8 14.6 8.0 56 4.5 WSW 9 13 5 7 1015.5 - 0.0
27/05:00pm 17.1 15.0 8.3 56 4.5 SW 9 13 5 7 1015.3 - 0.0
27/04:45pm 17.6 15.2 8.5 55 4.7 W 11 17 6 9 1015.1 - 0.0
27/04:30pm 17.9 15.8 8.4 53 4.9 NW 9 17 5 9 1014.9 - 0.0
27/04:15pm 18.6 15.6 7.6 48 5.6 NW 13 22 7 12 1014.9 - 0.0
27/04:00pm 18.9 14.8 7.8 48 5.7 NW 19 28 10 15 1014.9 - 0.0
27/03:45pm 19.0 16.2 8.7 51 5.4 NW 13 22 7 12 1015.0 - 0.0
27/03:30pm 18.6 15.9 9.0 53 5.0 NW 13 22 7 12 1015.0 - 0.0
27/03:15pm 18.5 16.1 8.8 53 5.1 NW 11 17 6 9 1015.1 - 0.0
27/03:00pm 18.9 16.2 8.8 52 5.3 WNW 13 19 7 10 1015.2 - 0.0
27/02:45pm 18.5 14.5 8.9 53 5.0 WNW 20 32 11 17 1015.4 - 0.0
27/02:30pm 18.5 16.3 10.7 60 4.2 NW 13 24 7 13 1015.5 - 0.0
27/02:15pm 18.6 16.8 11.0 61 4.1 NW 11 19 6 10 1015.5 - 0.0
27/02:00pm 18.6 16.5 11.1 61 4.1 NW 13 22 7 12 1015.5 - 0.0
27/01:45pm 18.4 16.7 11.1 62 4.0 NW 11 20 6 11 1015.6 - 0.0
27/01:30pm 18.7 17.0 12.4 67 3.5 WNW 13 19 7 10 1015.8 - 0.0
27/01:15pm 17.6 16.5 12.1 70 3.0 NW 9 17 5 9 1016.2 - 0.0
27/01:00pm 17.4 16.3 12.0 70 3.0 NW 9 13 5 7 1016.5 - 0.0
27/12:45pm 17.6 16.1 11.9 69 3.1 NW 11 17 6 9 1016.7 - 0.0
27/12:30pm 17.7 16.4 12.5 71 2.9 NW 11 19 6 10 1016.8 - 0.0
27/12:15pm 17.5 16.4 13.0 75 2.5 NW 11 19 6 10 1017.0 - 0.0
27/12:00pm 16.6 15.8 12.8 78 2.1 NW 9 13 5 7 1017.2 - 0.0
27/11:45am 16.0 15.1 12.6 80 1.9 WNW 9 13 5 7 1017.6 - 0.0
27/11:30am 15.7 14.8 12.7 82 1.7 NW 9 15 5 8 1017.8 - 0.0
27/11:15am 15.2 14.7 12.5 84 1.5 NNW 7 13 4 7 1018.2 - 0.0
27/11:00am 14.5 13.4 11.9 84 1.4 NW 9 13 5 7 1018.3 - 0.0
27/10:45am 14.5 13.8 12.1 85 1.3 WNW 7 9 4 5 1018.4 - 0.0
27/10:30am 14.5 14.1 12.3 87 1.2 WNW 6 9 3 5 1018.6 - 0.0
27/10:15am 14.4 14.0 12.4 88 1.1 W 6 9 3 5 1018.8 - 0.0
27/10:00am 13.9 13.2 12.0 88 1.0 WNW 7 11 4 6 1019.1 - 0.0
27/09:45am 13.6 13.1 11.9 89 0.9 W 6 9 3 5 1019.3 - 0.0
27/09:30am 13.3 13.1 11.7 90 0.9 WNW 4 7 2 4 1019.2 - 0.0
27/09:15am 13.1 12.2 11.4 89 0.9 WNW 7 13 4 7 1019.6 - 0.0
27/09:00am 12.8 11.1 11.2 90 0.8 WNW 11 17 6 9 1019.8 - 0.8
27/08:45am 12.5 10.7 11.0 90 0.8 W 11 17 6 9 1019.7 - 0.8
27/08:30am 12.2 10.0 10.8 91 0.7 W 13 17 7 9 1019.8 - 0.8
27/08:15am 11.9 9.6 10.4 90 0.8 W 13 17 7 9 1019.8 - 0.8
27/08:00am 11.7 9.7 10.2 90 0.8 W 11 15 6 8 1019.5 - 0.8
27/07:45am 11.2 9.8 9.7 90 0.8 W 7 9 4 5 1019.4 - 0.8
27/07:30am 10.8 9.3 9.3 90 0.8 WSW 7 11 4 6 1019.2 - 0.8
27/07:15am 10.7 9.2 9.2 90 0.8 SSW 7 9 4 5 1019.0 - 0.8
27/07:00am 10.8 8.6 9.3 90 0.8 WSW 11 15 6 8 1019.3 - 0.8
27/06:45am 10.9 9.1 9.4 90 0.8 W 9 13 5 7 1019.4 - 0.8
27/06:30am 10.7 9.2 9.2 90 0.8 WSW 7 9 4 5 1019.3 - 0.8
27/06:15am 10.6 9.3 9.2 91 0.7 WSW 6 9 3 5 1019.4 - 0.8
27/06:00am 10.5 9.0 9.0 90 0.7 SW 7 13 4 7 1019.3 - 0.8
27/05:45am 10.3 7.9 8.8 90 0.7 SW 11 13 6 7 1019.3 - 0.8
27/05:30am 10.4 8.0 8.8 90 0.8 SSW 11 15 6 8 1019.2 - 0.8
27/05:15am 10.5 8.2 9.0 90 0.7 SW 11 15 6 8 1019.2 - 0.8
27/05:00am 10.4 7.7 8.9 90 0.7 SW 13 17 7 9 1019.1 - 0.8
27/04:45am 10.3 7.2 8.8 90 0.7 SW 15 17 8 9 1018.9 - 0.8
27/04:30am 10.0 7.2 8.4 90 0.8 SW 13 17 7 9 1019.0 - 0.8
27/04:15am 10.3 7.2 8.7 90 0.8 SW 15 17 8 9 1018.7 - 0.8
27/04:00am 11.0 8.4 9.4 90 0.8 WSW 13 17 7 9 1018.9 - 0.8
27/03:45am 10.5 9.0 9.0 90 0.7 WSW 7 13 4 7 1018.8 - 0.8
27/03:30am 10.0 8.9 8.5 90 0.7 SSW 4 6 2 3 1018.7 - 0.8
27/03:15am 10.1 8.6 8.5 90 0.8 SSW 6 7 3 4 1018.7 - 0.8
27/03:00am 10.2 8.7 8.6 90 0.8 SSW 6 6 3 3 1019.0 - 0.8
27/02:45am 10.4 9.0 8.8 90 0.8 S 6 7 3 4 1019.1 - 0.8
27/02:30am 10.8 9.3 9.2 90 0.8 S 7 7 4 4 1019.1 - 0.8
27/02:15am 11.1 9.7 9.5 90 0.8 SSW 7 9 4 5 1019.2 - 0.8
27/02:00am 11.2 9.8 9.6 90 0.8 SSW 7 9 4 5 1019.3 - 0.6
27/01:45am 11.4 10.3 9.8 90 0.8 S 6 9 3 5 1019.3 - 0.6
27/01:30am 11.2 9.4 9.6 90 0.8 S 9 9 5 5 1019.5 - 0.6
27/01:15am 11.3 9.6 9.7 90 0.8 SSE 9 11 5 6 1019.7 - 0.6
27/01:00am 11.3 9.6 9.7 90 0.8 S 9 11 5 6 1020.1 - 0.6
27/12:45am 11.3 9.2 9.6 89 0.9 S 11 13 6 7 1020.0 - 0.6
27/12:30am 11.3 8.8 9.6 89 0.9 S 13 17 7 9 1019.9 - 0.6
27/12:15am 11.2 8.6 9.4 89 0.9 S 13 17 7 9 1020.0 - 0.6
27/12:00am 11.4 9.7 9.7 89 0.9 S 9 13 5 7 1020.4 - 0.6
 
Date/Time
EST
Temp
°C
App
Temp
°C
Dew
Point
Rel
Hum
%
Delta-T
°C
Wind Press
QNH
hPa
Press
MSL
hPa
Rain
since 9 am
mm
Dir
 
Spd
km/h
Gust
km/h
Spd
kts
Gust
kts
26/11:45pm 11.6 10.5 9.9 89 0.9 S 6 7 3 4 1020.6 - 0.6
26/11:30pm 11.8 10.2 10.1 89 0.9 S 9 11 5 6 1020.6 - 0.6
26/11:15pm 12.0 10.8 10.3 89 0.9 S 7 9 4 5 1020.7 - 0.6
26/11:00pm 11.8 10.2 10.1 89 0.9 SSW 9 13 5 7 1020.7 - 0.6
26/10:45pm 11.9 9.9 10.1 89 0.9 S 11 13 6 7 1020.9 - 0.6
26/10:30pm 11.9 10.3 10.1 89 0.9 SSW 9 13 5 7 1021.1 - 0.6
26/10:15pm 12.1 10.5 10.2 88 1.0 S 9 11 5 6 1021.2 - 0.6
26/10:00pm 12.5 11.0 10.6 88 1.0 SSW 9 13 5 7 1021.2 - 0.6
26/09:45pm 12.7 10.9 10.8 88 1.0 SW 11 13 6 7 1021.1 - 0.6
26/09:30pm 12.8 10.6 10.9 88 1.0 WSW 13 15 7 8 1021.4 - 0.6
26/09:15pm 13.2 11.5 11.3 88 1.0 WSW 11 15 6 8 1021.5 - 0.6
26/09:00pm 13.2 11.5 11.2 88 1.1 SSW 11 13 6 7 1021.2 - 0.6
26/08:45pm 13.3 12.0 11.4 88 1.0 SSW 9 13 5 7 1021.2 - 0.6
26/08:30pm 13.2 11.9 11.2 88 1.1 SSW 9 13 5 7 1021.0 - 0.6
26/08:15pm 13.3 11.6 11.2 87 1.1 S 11 13 6 7 1020.8 - 0.6
26/08:00pm 13.6 12.4 11.5 87 1.1 S 9 13 5 7 1020.8 - 0.6
26/07:45pm 13.8 12.3 11.8 88 1.1 SSW 11 13 6 7 1020.9 - 0.6
26/07:30pm 14.1 12.3 12.0 87 1.1 SW 13 15 7 8 1020.9 - 0.6
26/07:15pm 14.5 13.5 12.4 87 1.2 SW 9 13 5 7 1021.1 - 0.6
26/07:00pm 14.3 13.7 12.2 87 1.1 SW 7 9 4 5 1020.9 - 0.6
26/06:45pm 13.9 13.1 11.8 87 1.1 S 7 13 4 7 1020.4 - 0.6
26/06:30pm 13.9 13.1 11.8 87 1.1 SSE 7 9 4 5 1020.3 - 0.6
26/06:15pm 13.8 12.9 11.5 86 1.2 S 7 11 4 6 1020.1 - 0.6
26/06:00pm 14.1 13.0 11.9 86 1.2 S 9 13 5 7 1019.9 - 0.6
26/05:45pm 14.3 12.8 12.0 86 1.2 S 11 15 6 8 1019.8 - 0.6
26/05:30pm 14.7 13.0 12.3 85 1.3 SSE 13 17 7 9 1019.6 - 0.6
26/05:15pm 15.0 14.1 12.6 85 1.3 S 9 15 5 8 1019.5 - 0.6
26/05:00pm 15.1 14.3 12.8 86 1.3 S 9 13 5 7 1019.2 - 0.6
26/04:45pm 14.9 14.0 12.5 85 1.3 S 9 11 5 6 1019.1 - 0.6
26/04:30pm 14.4 13.9 11.9 85 1.4 SSE 6 9 3 5 1018.9 - 0.6
26/04:15pm 14.4 13.3 11.8 84 1.4 SE 9 13 5 7 1018.7 - 0.6
26/04:00pm 14.6 13.5 11.8 83 1.5 S 9 13 5 7 1018.5 - 0.6
26/03:45pm 14.8 13.7 11.8 82 1.6 SSE 9 17 5 9 1018.4 - 0.4
26/03:30pm 15.0 13.4 11.5 79 1.9 S 11 19 6 10 1018.4 - 0.0
26/03:15pm 16.1 13.3 11.4 73 2.5 SSW 17 24 9 13 1018.4 - 0.0
26/03:00pm 17.8 15.8 12.8 72 2.8 S 15 24 8 13 1018.1 - 0.0
26/02:45pm 17.4 15.7 12.5 73 2.7 SSE 13 22 7 12 1018.1 - 0.0
26/02:30pm 17.4 15.3 12.4 72 2.8 SSE 15 26 8 14 1018.1 - 0.0
26/02:15pm 17.5 15.3 12.1 70 3.0 SSE 15 22 8 12 1018.1 - 0.0
26/02:00pm 18.1 16.9 12.7 70 3.0 SSE 11 19 6 10 1018.2 - 0.0
26/01:45pm 17.9 16.7 12.7 71 2.9 S 11 17 6 9 1018.1 - 0.0
26/01:30pm 17.8 16.1 12.3 70 3.1 S 13 22 7 12 1018.3 - 0.0
26/01:15pm 17.3 15.8 11.9 70 3.0 S 11 17 6 9 1018.5 - 0.0
26/01:00pm 17.5 15.8 12.4 72 2.8 S 13 19 7 10 1018.6 - 0.0
26/12:45pm 16.9 15.0 11.8 72 2.8 S 13 20 7 11 1018.8 - 0.0
26/12:30pm 17.2 15.2 11.6 69 3.1 SSE 13 17 7 9 1018.9 - 0.0
26/12:15pm 17.7 15.8 11.7 68 3.3 SE 13 19 7 10 1018.9 - 0.0
26/12:00pm 17.9 16.5 12.1 69 3.2 SE 11 20 6 11 1018.9 - 0.0
26/11:45am 17.4 15.6 12.1 71 2.9 SE 13 20 7 11 1019.1 - 0.0
26/11:30am 17.4 16.2 12.7 74 2.6 SSE 11 20 6 11 1019.2 - 0.0
26/11:15am 17.2 15.7 13.1 77 2.3 SSE 13 19 7 10 1019.2 - 0.0
26/11:00am 16.9 15.9 13.5 80 1.9 SSE 11 19 6 10 1019.1 - 0.0
26/10:45am 16.2 14.8 13.3 83 1.6 SSE 13 20 7 11 1019.1 - 0.0
26/10:30am 15.9 14.5 13.4 85 1.4 SSE 13 19 7 10 1019.0 - 0.0
26/10:15am 15.8 14.5 13.8 88 1.1 SSE 13 22 7 12 1019.0 - 0.0
26/10:00am 15.5 13.8 13.5 88 1.1 S 15 22 8 12 1018.8 - 0.0
26/09:45am 15.6 15.7 13.9 90 1.0 S 6 17 3 9 1018.7 - 0.0
26/09:30am 15.1 15.0 13.3 89 1.0 S 6 9 3 5 1018.6 - 0.0
26/09:15am 15.7 16.2 14.1 90 0.9 S 4 9 2 5 1018.5 - 0.0
26/09:00am 14.9 15.2 13.3 90 0.9 ENE 4 9 2 5 1018.5 - 12.5
26/08:45am 14.2 13.7 12.5 89 0.9 ENE 7 17 4 9 1018.6 - 12.3
26/08:30am 14.5 14.3 12.9 90 0.9 SW 6 9 3 5 1018.4 - 11.0
26/08:15am 14.6 14.2 13.1 91 0.8 S 7 13 4 7 1018.2 - 11.0

Other Formats:

Comma delimited format used in spreadsheet applications
http://www.bom.gov.au/fwo/IDN60801/IDN60801.95757.axf

JavaScript Object Notation format (JSON) in row-major order
http://www.bom.gov.au/fwo/IDN60801/IDN60801.95757.json